Audrey — PD9331 — position and weather

sailwx.info

Track history (hours):
 
Tides and Currents Weather Stations Pressure Air Temp Water Temp Dewpoint Dewpoint Depression Visibility Wind Speed Wind Dir Waves Ship Positions

Audrey

Last reported at 2016-Sep-29 23:34 UTC. Time now 2016-Sep-29 23:48 UTC.
Position N 52°24' E 004°52'.

Length 85 m; draft 2.4 m.

Type: Wing in ground effect craft. MMSI: 244660106.

Date/timePositionNaut miles runAvg speedWind from/ knotsBaromVisibWave heightAir tempDewpointWater temp
2016-Sep-29 23:34N 52°24' E 004°52'0 0.0
2016-Sep-29 21:33N 52°24' E 004°52'0 0.0
2016-Sep-29 20:33N 52°24' E 004°52'0 0.0
2016-Sep-29 19:33N 52°24' E 004°52'0 0.0
2016-Sep-29 16:33N 52°24' E 004°52'0 0.0
2016-Sep-29 15:33N 52°24' E 004°52'0 0.0
2016-Sep-29 14:33N 52°24' E 004°52'0 0.0
2016-Sep-29 13:33N 52°24' E 004°52'0 0.0
2016-Sep-29 08:34N 52°24' E 004°52'0 0.0
2016-Sep-29 07:33N 52°24' E 004°52'0 0.0
2016-Sep-29 00:33N 52°24' E 004°52'0 0.0
2016-Sep-28 21:33N 52°24' E 004°52'0 0.0
2016-Sep-28 19:34N 52°24' E 004°52'0 0.0
2016-Sep-28 16:33N 52°24' E 004°52'0 0.0
2016-Sep-28 15:34N 52°24' E 004°52'0 0.0
2016-Sep-28 12:33N 52°24' E 004°52'3 0.6
2016-Sep-28 08:33N 52°23' E 004°56'24 4.8
2016-Sep-28 03:33N 52°00' E 005°11'5 5.0
2016-Sep-28 02:33N 51°58' E 005°18'0 0.0
2016-Sep-28 01:33N 51°58' E 005°18'0 0.0
2016-Sep-27 23:33N 51°58' E 005°18'0 0.0
2016-Sep-27 19:33N 51°58' E 005°18'20 0.5
2016-Sep-26 01:21N 51°51' E 005°49'0 0.0
2016-Sep-26 00:31N 51°51' E 005°49'0 0.0
2016-Sep-25 21:33N 51°51' E 005°49'0 0.0
2016-Sep-25 17:29N 51°51' E 005°49'0 0.0
2016-Sep-25 16:30N 51°51' E 005°49'0 0.0
2016-Sep-25 15:32N 51°51' E 005°49'0 0.0
2016-Sep-25 14:32N 51°51' E 005°49'0 0.0
2016-Sep-25 12:33N 51°51' E 005°49'0 0.0
2016-Sep-25 11:31N 51°51' E 005°49'0 0.0
2016-Sep-25 10:31N 51°51' E 005°49'0 0.0
2016-Sep-25 04:32N 51°51' E 005°49'0 0.0
2016-Sep-24 22:34N 51°51' E 005°49'0 0.0
2016-Sep-24 21:31N 51°51' E 005°49'0 0.0
2016-Sep-24 19:31N 51°51' E 005°49'0 0.0
2016-Sep-24 18:33N 51°51' E 005°49'0 0.0
2016-Sep-24 17:31N 51°51' E 005°49'0 0.0
2016-Sep-24 16:30N 51°51' E 005°49'0 0.0
2016-Sep-24 14:26N 51°51' E 005°49'0 0.0
2016-Sep-24 12:21N 51°51' E 005°49'0 0.0
2016-Sep-24 10:33N 51°51' E 005°49'0 0.0
2016-Sep-24 03:33N 51°51' E 005°49'0 0.0
2016-Sep-24 02:30N 51°51' E 005°49'0 0.0
2016-Sep-24 01:25N 51°51' E 005°49'0 0.0
2016-Sep-24 00:33N 51°51' E 005°49'0 0.0
2016-Sep-23 19:12N 51°51' E 005°49'0 0.0
2016-Sep-23 17:31N 51°51' E 005°49'0 0.0
2016-Sep-23 04:23N 51°51' E 005°49'0 0.0
2016-Sep-23 02:26N 51°51' E 005°49'0 0.0
2016-Sep-23 01:33N 51°51' E 005°49'0 0.0
2016-Sep-23 00:32N 51°51' E 005°49'0 0.0
2016-Sep-22 23:32N 51°51' E 005°49'0 0.0
2016-Sep-22 20:32N 51°51' E 005°49'0 0.0
2016-Sep-22 12:30N 51°51' E 005°49'0 0.0
2016-Sep-22 04:31N 51°51' E 005°49'0 0.0
2016-Sep-22 03:33N 51°51' E 005°49'0 0.0
2016-Sep-22 00:33N 51°51' E 005°49'0 0.0
2016-Sep-21 23:30N 51°51' E 005°49'0 0.0
2016-Sep-21 22:31N 51°51' E 005°49'0 0.1
2016-Sep-21 16:18N 51°51' E 005°49'35 5.1
2016-Sep-21 09:30N 51°35' E 006°39'24 6.0
2016-Sep-21 05:33N 51°11' E 006°44'23 1.9
2016-Sep-20 17:29N 50°50' E 006°59'  
Track history (hours):
 
Tides and Currents Weather Stations Pressure Air Temp Water Temp Dewpoint Dewpoint Depression Visibility Wind Speed Wind Dir Waves Ship Positions

Audrey

Last reported at 2016-Sep-29 23:34 UTC. Time now 2016-Sep-29 23:48 UTC.
Position N 52°24' E 004°52'.

Length 85 m; draft 2.4 m.

Type: Wing in ground effect craft. MMSI: 244660106.

Date/timePositionNaut miles runAvg speedWind from/ knotsBaromVisibWave heightAir tempDewpointWater temp
2016-Sep-29 23:34N 52°24' E 004°52'0 0.0
2016-Sep-29 21:33N 52°24' E 004°52'0 0.0
2016-Sep-29 20:33N 52°24' E 004°52'0 0.0
2016-Sep-29 19:33N 52°24' E 004°52'0 0.0
2016-Sep-29 16:33N 52°24' E 004°52'0 0.0
2016-Sep-29 15:33N 52°24' E 004°52'0 0.0
2016-Sep-29 14:33N 52°24' E 004°52'0 0.0
2016-Sep-29 13:33N 52°24' E 004°52'0 0.0
2016-Sep-29 08:34N 52°24' E 004°52'0 0.0
2016-Sep-29 07:33N 52°24' E 004°52'0 0.0
2016-Sep-29 00:33N 52°24' E 004°52'0 0.0
2016-Sep-28 21:33N 52°24' E 004°52'0 0.0
2016-Sep-28 19:34N 52°24' E 004°52'0 0.0
2016-Sep-28 16:33N 52°24' E 004°52'0 0.0
2016-Sep-28 15:34N 52°24' E 004°52'0 0.0
2016-Sep-28 12:33N 52°24' E 004°52'3 0.6
2016-Sep-28 08:33N 52°23' E 004°56'24 4.8
2016-Sep-28 03:33N 52°00' E 005°11'5 5.0
2016-Sep-28 02:33N 51°58' E 005°18'0 0.0
2016-Sep-28 01:33N 51°58' E 005°18'0 0.0
2016-Sep-27 23:33N 51°58' E 005°18'0 0.0
2016-Sep-27 19:33N 51°58' E 005°18'20 0.5
2016-Sep-26 01:21N 51°51' E 005°49'0 0.0
2016-Sep-26 00:31N 51°51' E 005°49'0 0.0
2016-Sep-25 21:33N 51°51' E 005°49'0 0.0
2016-Sep-25 17:29N 51°51' E 005°49'0 0.0
2016-Sep-25 16:30N 51°51' E 005°49'0 0.0
2016-Sep-25 15:32N 51°51' E 005°49'0 0.0
2016-Sep-25 14:32N 51°51' E 005°49'0 0.0
2016-Sep-25 12:33N 51°51' E 005°49'0 0.0
2016-Sep-25 11:31N 51°51' E 005°49'0 0.0
2016-Sep-25 10:31N 51°51' E 005°49'0 0.0
2016-Sep-25 04:32N 51°51' E 005°49'0 0.0
2016-Sep-24 22:34N 51°51' E 005°49'0 0.0
2016-Sep-24 21:31N 51°51' E 005°49'0 0.0
2016-Sep-24 19:31N 51°51' E 005°49'0 0.0
2016-Sep-24 18:33N 51°51' E 005°49'0 0.0
2016-Sep-24 17:31N 51°51' E 005°49'0 0.0
2016-Sep-24 16:30N 51°51' E 005°49'0 0.0
2016-Sep-24 14:26N 51°51' E 005°49'0 0.0
2016-Sep-24 12:21N 51°51' E 005°49'0 0.0
2016-Sep-24 10:33N 51°51' E 005°49'0 0.0
2016-Sep-24 03:33N 51°51' E 005°49'0 0.0
2016-Sep-24 02:30N 51°51' E 005°49'0 0.0
2016-Sep-24 01:25N 51°51' E 005°49'0 0.0
2016-Sep-24 00:33N 51°51' E 005°49'0 0.0
2016-Sep-23 19:12N 51°51' E 005°49'0 0.0
2016-Sep-23 17:31N 51°51' E 005°49'0 0.0
2016-Sep-23 04:23N 51°51' E 005°49'0 0.0
2016-Sep-23 02:26N 51°51' E 005°49'0 0.0
2016-Sep-23 01:33N 51°51' E 005°49'0 0.0
2016-Sep-23 00:32N 51°51' E 005°49'0 0.0
2016-Sep-22 23:32N 51°51' E 005°49'0 0.0
2016-Sep-22 20:32N 51°51' E 005°49'0 0.0
2016-Sep-22 12:30N 51°51' E 005°49'0 0.0
2016-Sep-22 04:31N 51°51' E 005°49'0 0.0
2016-Sep-22 03:33N 51°51' E 005°49'0 0.0
2016-Sep-22 00:33N 51°51' E 005°49'0 0.0
2016-Sep-21 23:30N 51°51' E 005°49'0 0.0
2016-Sep-21 22:31N 51°51' E 005°49'0 0.1
2016-Sep-21 16:18N 51°51' E 005°49'35 5.1
2016-Sep-21 09:30N 51°35' E 006°39'24 6.0
2016-Sep-21 05:33N 51°11' E 006°44'23 1.9
2016-Sep-20 17:29N 50°50' E 006°59'  

Dump ship's entire track history